sensor_id;sensor_type;location;lat;lon;timestamp;P1;durP1;ratioP1;P2;durP2;ratioP2
51732;SDS011;39139;53.144;6.244;2023-02-17T00:00:18;66.60;;;36.63;;
51732;SDS011;39139;53.144;6.244;2023-02-17T00:02:44;71.88;;;39.30;;
51732;SDS011;39139;53.144;6.244;2023-02-17T00:05:10;70.80;;;40.15;;
51732;SDS011;39139;53.144;6.244;2023-02-17T00:07:36;72.18;;;38.72;;
51732;SDS011;39139;53.144;6.244;2023-02-17T00:10:02;78.95;;;42.75;;
51732;SDS011;39139;53.144;6.244;2023-02-17T00:12:28;66.70;;;34.55;;
51732;SDS011;39139;53.144;6.244;2023-02-17T00:14:54;89.45;;;45.60;;
51732;SDS011;39139;53.144;6.244;2023-02-17T00:17:19;86.07;;;45.45;;
51732;SDS011;39139;53.144;6.244;2023-02-17T00:19:45;83.68;;;44.33;;
51732;SDS011;39139;53.144;6.244;2023-02-17T00:22:10;83.15;;;43.97;;
51732;SDS011;39139;53.144;6.244;2023-02-17T00:24:37;85.13;;;46.50;;
51732;SDS011;39139;53.144;6.244;2023-02-17T00:27:03;91.00;;;48.10;;
51732;SDS011;39139;53.144;6.244;2023-02-17T00:29:29;82.82;;;43.65;;
51732;SDS011;39139;53.144;6.244;2023-02-17T00:31:55;81.45;;;47.45;;
51732;SDS011;39139;53.144;6.244;2023-02-17T00:34:20;91.68;;;50.42;;
51732;SDS011;39139;53.144;6.244;2023-02-17T00:36:46;92.05;;;51.55;;
51732;SDS011;39139;53.144;6.244;2023-02-17T00:39:13;100.13;;;52.13;;
51732;SDS011;39139;53.144;6.244;2023-02-17T00:41:40;92.22;;;50.10;;
51732;SDS011;39139;53.144;6.244;2023-02-17T00:44:06;93.93;;;51.67;;
51732;SDS011;39139;53.144;6.244;2023-02-17T00:46:33;95.15;;;49.30;;
51732;SDS011;39139;53.144;6.244;2023-02-17T00:48:59;104.00;;;53.13;;
51732;SDS011;39139;53.144;6.244;2023-02-17T00:51:24;92.60;;;52.55;;
51732;SDS011;39139;53.144;6.244;2023-02-17T00:53:50;112.03;;;53.85;;
51732;SDS011;39139;53.144;6.244;2023-02-17T00:56:16;111.95;;;57.25;;
51732;SDS011;39139;53.144;6.244;2023-02-17T00:58:42;107.53;;;55.53;;
51732;SDS011;39139;53.144;6.244;2023-02-17T01:01:09;106.82;;;54.42;;
51732;SDS011;39139;53.144;6.244;2023-02-17T01:03:35;106.95;;;55.83;;
51732;SDS011;39139;53.144;6.244;2023-02-17T01:06:05;101.40;;;55.83;;
51732;SDS011;39139;53.144;6.244;2023-02-17T01:08:33;103.47;;;51.72;;
51732;SDS011;39139;53.144;6.244;2023-02-17T01:10:59;107.25;;;58.50;;
51732;SDS011;39139;53.144;6.244;2023-02-17T01:13:25;93.53;;;53.75;;
51732;SDS011;39139;53.144;6.244;2023-02-17T01:15:51;101.47;;;55.58;;
51732;SDS011;39139;53.144;6.244;2023-02-17T01:18:18;91.22;;;52.50;;
51732;SDS011;39139;53.144;6.244;2023-02-17T01:20:46;101.35;;;52.78;;
51732;SDS011;39139;53.144;6.244;2023-02-17T01:23:12;85.63;;;48.95;;
51732;SDS011;39139;53.144;6.244;2023-02-17T01:25:38;96.97;;;51.67;;
51732;SDS011;39139;53.144;6.244;2023-02-17T01:28:05;92.22;;;50.72;;
51732;SDS011;39139;53.144;6.244;2023-02-17T01:30:31;93.63;;;51.30;;
51732;SDS011;39139;53.144;6.244;2023-02-17T01:32:57;96.80;;;46.83;;
51732;SDS011;39139;53.144;6.244;2023-02-17T01:35:23;92.65;;;48.13;;
51732;SDS011;39139;53.144;6.244;2023-02-17T01:37:49;97.53;;;50.95;;
51732;SDS011;39139;53.144;6.244;2023-02-17T01:40:15;70.55;;;40.05;;
51732;SDS011;39139;53.144;6.244;2023-02-17T01:42:41;83.20;;;48.15;;
51732;SDS011;39139;53.144;6.244;2023-02-17T01:47:46;93.40;;;52.72;;
51732;SDS011;39139;53.144;6.244;2023-02-17T01:50:20;90.88;;;49.53;;
51732;SDS011;39139;53.144;6.244;2023-02-17T01:52:49;104.28;;;53.80;;
51732;SDS011;39139;53.144;6.244;2023-02-17T01:55:18;103.38;;;53.00;;
51732;SDS011;39139;53.144;6.244;2023-02-17T01:57:45;97.13;;;51.08;;
51732;SDS011;39139;53.144;6.244;2023-02-17T02:00:14;99.05;;;55.60;;
51732;SDS011;39139;53.144;6.244;2023-02-17T02:02:42;83.28;;;48.67;;
51732;SDS011;39139;53.144;6.244;2023-02-17T02:05:09;83.45;;;43.88;;
51732;SDS011;39139;53.144;6.244;2023-02-17T02:07:37;84.05;;;47.42;;
51732;SDS011;39139;53.144;6.244;2023-02-17T02:10:06;89.35;;;49.08;;
51732;SDS011;39139;53.144;6.244;2023-02-17T02:12:33;89.50;;;50.00;;
51732;SDS011;39139;53.144;6.244;2023-02-17T02:34:17;82.03;;;47.70;;
51732;SDS011;39139;53.144;6.244;2023-02-17T02:37:17;83.95;;;46.22;;
51732;SDS011;39139;53.144;6.244;2023-02-17T02:39:49;74.25;;;43.28;;
51732;SDS011;39139;53.144;6.244;2023-02-17T02:42:19;82.43;;;40.78;;
51732;SDS011;39139;53.144;6.244;2023-02-17T02:44:47;89.70;;;45.87;;
51732;SDS011;39139;53.144;6.244;2023-02-17T02:50:06;78.35;;;46.40;;
51732;SDS011;39139;53.144;6.244;2023-02-17T02:58:48;75.13;;;42.28;;
51732;SDS011;39139;53.144;6.244;2023-02-17T03:01:20;80.50;;;46.65;;
51732;SDS011;39139;53.144;6.244;2023-02-17T03:03:52;81.63;;;43.97;;
51732;SDS011;39139;53.144;6.244;2023-02-17T03:06:33;74.25;;;46.00;;
51732;SDS011;39139;53.144;6.244;2023-02-17T03:09:17;77.65;;;44.88;;
51732;SDS011;39139;53.144;6.244;2023-02-17T03:11:46;76.30;;;42.25;;
51732;SDS011;39139;53.144;6.244;2023-02-17T03:14:13;72.13;;;42.40;;
51732;SDS011;39139;53.144;6.244;2023-02-17T03:16:40;85.40;;;45.90;;
51732;SDS011;39139;53.144;6.244;2023-02-17T03:19:07;89.55;;;47.13;;
51732;SDS011;39139;53.144;6.244;2023-02-17T03:21:35;76.93;;;46.83;;
51732;SDS011;39139;53.144;6.244;2023-02-17T03:24:12;78.57;;;45.53;;
51732;SDS011;39139;53.144;6.244;2023-02-17T03:26:38;82.13;;;46.58;;
51732;SDS011;39139;53.144;6.244;2023-02-17T03:29:03;71.40;;;42.63;;
51732;SDS011;39139;53.144;6.244;2023-02-17T03:31:29;83.07;;;47.70;;
51732;SDS011;39139;53.144;6.244;2023-02-17T03:33:55;86.43;;;45.75;;
51732;SDS011;39139;53.144;6.244;2023-02-17T03:36:21;77.85;;;48.10;;
51732;SDS011;39139;53.144;6.244;2023-02-17T03:38:46;84.45;;;47.95;;
51732;SDS011;39139;53.144;6.244;2023-02-17T03:41:12;81.50;;;45.63;;
51732;SDS011;39139;53.144;6.244;2023-02-17T03:43:38;85.07;;;49.08;;
51732;SDS011;39139;53.144;6.244;2023-02-17T03:46:03;80.10;;;45.22;;
51732;SDS011;39139;53.144;6.244;2023-02-17T03:48:29;73.80;;;46.67;;
51732;SDS011;39139;53.144;6.244;2023-02-17T03:50:54;68.13;;;42.03;;
51732;SDS011;39139;53.144;6.244;2023-02-17T03:53:20;79.10;;;49.83;;
51732;SDS011;39139;53.144;6.244;2023-02-17T03:55:46;81.90;;;48.05;;
51732;SDS011;39139;53.144;6.244;2023-02-17T03:58:11;73.95;;;48.15;;
51732;SDS011;39139;53.144;6.244;2023-02-17T04:00:37;76.45;;;47.28;;
51732;SDS011;39139;53.144;6.244;2023-02-17T04:03:03;80.40;;;47.30;;
51732;SDS011;39139;53.144;6.244;2023-02-17T04:05:28;76.88;;;45.92;;
51732;SDS011;39139;53.144;6.244;2023-02-17T04:07:54;81.25;;;48.38;;
51732;SDS011;39139;53.144;6.244;2023-02-17T04:10:20;77.15;;;42.75;;
51732;SDS011;39139;53.144;6.244;2023-02-17T04:12:45;67.88;;;40.95;;
51732;SDS011;39139;53.144;6.244;2023-02-17T04:15:11;67.75;;;37.13;;
51732;SDS011;39139;53.144;6.244;2023-02-17T04:17:36;73.88;;;38.55;;
51732;SDS011;39139;53.144;6.244;2023-02-17T04:20:03;69.70;;;39.75;;
51732;SDS011;39139;53.144;6.244;2023-02-17T04:22:30;68.05;;;37.85;;
51732;SDS011;39139;53.144;6.244;2023-02-17T04:24:55;69.32;;;36.35;;
51732;SDS011;39139;53.144;6.244;2023-02-17T04:27:21;68.70;;;36.35;;
51732;SDS011;39139;53.144;6.244;2023-02-17T04:29:47;72.55;;;40.58;;
51732;SDS011;39139;53.144;6.244;2023-02-17T04:32:12;73.13;;;40.33;;
51732;SDS011;39139;53.144;6.244;2023-02-17T04:34:38;63.83;;;34.53;;
51732;SDS011;39139;53.144;6.244;2023-02-17T04:37:03;69.25;;;35.20;;
51732;SDS011;39139;53.144;6.244;2023-02-17T04:39:30;63.33;;;39.50;;
51732;SDS011;39139;53.144;6.244;2023-02-17T04:41:56;71.20;;;38.35;;
51732;SDS011;39139;53.144;6.244;2023-02-17T04:44:21;68.80;;;36.80;;
51732;SDS011;39139;53.144;6.244;2023-02-17T04:46:47;70.20;;;35.90;;
51732;SDS011;39139;53.144;6.244;2023-02-17T04:49:12;64.30;;;35.53;;
51732;SDS011;39139;53.144;6.244;2023-02-17T04:51:38;61.85;;;33.65;;
51732;SDS011;39139;53.144;6.244;2023-02-17T04:54:03;61.78;;;36.35;;
51732;SDS011;39139;53.144;6.244;2023-02-17T04:56:29;64.15;;;37.65;;
51732;SDS011;39139;53.144;6.244;2023-02-17T04:58:55;65.43;;;35.13;;
51732;SDS011;39139;53.144;6.244;2023-02-17T05:01:20;68.00;;;37.03;;
51732;SDS011;39139;53.144;6.244;2023-02-17T05:03:46;58.58;;;28.08;;
51732;SDS011;39139;53.144;6.244;2023-02-17T05:06:11;76.47;;;42.30;;
51732;SDS011;39139;53.144;6.244;2023-02-17T05:08:37;74.28;;;36.20;;
51732;SDS011;39139;53.144;6.244;2023-02-17T05:11:03;69.72;;;34.45;;
51732;SDS011;39139;53.144;6.244;2023-02-17T05:13:28;67.13;;;36.85;;
51732;SDS011;39139;53.144;6.244;2023-02-17T05:15:54;77.55;;;41.45;;
51732;SDS011;39139;53.144;6.244;2023-02-17T05:18:20;69.35;;;37.47;;
51732;SDS011;39139;53.144;6.244;2023-02-17T05:20:45;74.82;;;42.05;;
51732;SDS011;39139;53.144;6.244;2023-02-17T05:23:11;62.20;;;34.97;;
51732;SDS011;39139;53.144;6.244;2023-02-17T05:25:36;61.28;;;36.72;;
51732;SDS011;39139;53.144;6.244;2023-02-17T05:28:02;64.28;;;36.28;;
51732;SDS011;39139;53.144;6.244;2023-02-17T05:30:28;63.83;;;40.53;;
51732;SDS011;39139;53.144;6.244;2023-02-17T05:32:53;60.25;;;37.33;;
51732;SDS011;39139;53.144;6.244;2023-02-17T05:35:20;59.67;;;36.08;;
51732;SDS011;39139;53.144;6.244;2023-02-17T05:37:46;65.07;;;39.05;;
51732;SDS011;39139;53.144;6.244;2023-02-17T05:40:11;75.00;;;40.15;;
51732;SDS011;39139;53.144;6.244;2023-02-17T05:42:37;64.22;;;34.40;;
51732;SDS011;39139;53.144;6.244;2023-02-17T05:45:03;62.72;;;38.00;;
51732;SDS011;39139;53.144;6.244;2023-02-17T05:47:29;60.58;;;34.80;;
51732;SDS011;39139;53.144;6.244;2023-02-17T05:49:54;76.03;;;40.80;;
51732;SDS011;39139;53.144;6.244;2023-02-17T05:52:20;76.57;;;36.83;;
51732;SDS011;39139;53.144;6.244;2023-02-17T05:54:45;71.13;;;39.50;;
51732;SDS011;39139;53.144;6.244;2023-02-17T05:57:11;72.43;;;38.83;;
51732;SDS011;39139;53.144;6.244;2023-02-17T05:59:36;65.47;;;36.95;;
51732;SDS011;39139;53.144;6.244;2023-02-17T06:02:02;75.43;;;40.72;;
51732;SDS011;39139;53.144;6.244;2023-02-17T06:04:28;66.03;;;37.75;;
51732;SDS011;39139;53.144;6.244;2023-02-17T06:06:53;67.82;;;39.50;;
51732;SDS011;39139;53.144;6.244;2023-02-17T06:09:19;70.88;;;39.00;;
51732;SDS011;39139;53.144;6.244;2023-02-17T06:11:45;63.95;;;37.40;;
51732;SDS011;39139;53.144;6.244;2023-02-17T06:14:10;69.03;;;37.35;;
51732;SDS011;39139;53.144;6.244;2023-02-17T06:16:36;62.70;;;34.60;;
51732;SDS011;39139;53.144;6.244;2023-02-17T06:19:01;76.78;;;42.38;;
51732;SDS011;39139;53.144;6.244;2023-02-17T06:21:29;80.35;;;42.67;;
51732;SDS011;39139;53.144;6.244;2023-02-17T06:23:55;72.60;;;40.20;;
51732;SDS011;39139;53.144;6.244;2023-02-17T06:26:21;74.45;;;44.97;;
51732;SDS011;39139;53.144;6.244;2023-02-17T06:28:46;85.13;;;44.92;;
51732;SDS011;39139;53.144;6.244;2023-02-17T06:31:12;69.05;;;35.78;;
51732;SDS011;39139;53.144;6.244;2023-02-17T06:33:38;75.75;;;41.90;;
51732;SDS011;39139;53.144;6.244;2023-02-17T06:36:03;84.03;;;43.28;;
51732;SDS011;39139;53.144;6.244;2023-02-17T06:38:29;89.18;;;48.15;;
51732;SDS011;39139;53.144;6.244;2023-02-17T06:40:55;76.53;;;47.05;;
51732;SDS011;39139;53.144;6.244;2023-02-17T06:43:20;87.70;;;44.03;;
51732;SDS011;39139;53.144;6.244;2023-02-17T06:45:46;81.32;;;44.78;;
51732;SDS011;39139;53.144;6.244;2023-02-17T06:48:12;71.88;;;36.22;;
51732;SDS011;39139;53.144;6.244;2023-02-17T06:50:38;82.22;;;44.55;;
51732;SDS011;39139;53.144;6.244;2023-02-17T06:53:03;83.60;;;43.20;;
51732;SDS011;39139;53.144;6.244;2023-02-17T06:55:29;81.78;;;44.42;;
51732;SDS011;39139;53.144;6.244;2023-02-17T06:57:55;82.65;;;40.47;;
51732;SDS011;39139;53.144;6.244;2023-02-17T07:00:21;84.18;;;43.25;;
51732;SDS011;39139;53.144;6.244;2023-02-17T07:02:47;82.78;;;44.28;;
51732;SDS011;39139;53.144;6.244;2023-02-17T07:05:12;84.20;;;43.10;;
51732;SDS011;39139;53.144;6.244;2023-02-17T07:07:38;83.38;;;42.58;;
51732;SDS011;39139;53.144;6.244;2023-02-17T07:10:04;88.55;;;44.30;;
51732;SDS011;39139;53.144;6.244;2023-02-17T07:12:30;79.63;;;38.10;;
51732;SDS011;39139;53.144;6.244;2023-02-17T07:14:56;83.03;;;40.20;;
51732;SDS011;39139;53.144;6.244;2023-02-17T07:17:21;87.13;;;40.97;;
51732;SDS011;39139;53.144;6.244;2023-02-17T07:19:47;79.97;;;37.10;;
51732;SDS011;39139;53.144;6.244;2023-02-17T07:22:13;86.38;;;38.53;;
51732;SDS011;39139;53.144;6.244;2023-02-17T07:24:38;86.10;;;42.70;;
51732;SDS011;39139;53.144;6.244;2023-02-17T07:27:04;95.00;;;42.65;;
51732;SDS011;39139;53.144;6.244;2023-02-17T07:29:30;92.63;;;42.47;;
51732;SDS011;39139;53.144;6.244;2023-02-17T07:31:56;86.07;;;44.85;;
51732;SDS011;39139;53.144;6.244;2023-02-17T07:34:22;85.68;;;40.35;;
51732;SDS011;39139;53.144;6.244;2023-02-17T07:36:47;77.90;;;38.45;;
51732;SDS011;39139;53.144;6.244;2023-02-17T07:39:13;102.45;;;43.50;;
51732;SDS011;39139;53.144;6.244;2023-02-17T07:41:38;84.78;;;39.38;;
51732;SDS011;39139;53.144;6.244;2023-02-17T07:44:04;83.20;;;37.97;;
51732;SDS011;39139;53.144;6.244;2023-02-17T07:46:30;84.82;;;35.28;;
51732;SDS011;39139;53.144;6.244;2023-02-17T07:48:56;82.07;;;39.15;;
51732;SDS011;39139;53.144;6.244;2023-02-17T07:51:22;83.63;;;41.15;;
51732;SDS011;39139;53.144;6.244;2023-02-17T07:53:49;79.60;;;34.75;;
51732;SDS011;39139;53.144;6.244;2023-02-17T07:56:17;80.93;;;35.85;;
51732;SDS011;39139;53.144;6.244;2023-02-17T07:58:44;70.93;;;38.00;;
51732;SDS011;39139;53.144;6.244;2023-02-17T08:01:11;80.18;;;37.92;;
51732;SDS011;39139;53.144;6.244;2023-02-17T08:03:39;71.60;;;34.28;;
51732;SDS011;39139;53.144;6.244;2023-02-17T08:06:08;71.03;;;37.40;;
51732;SDS011;39139;53.144;6.244;2023-02-17T08:08:36;74.47;;;30.52;;
51732;SDS011;39139;53.144;6.244;2023-02-17T08:11:20;67.53;;;33.00;;
51732;SDS011;39139;53.144;6.244;2023-02-17T08:14:04;64.38;;;32.15;;
51732;SDS011;39139;53.144;6.244;2023-02-17T08:16:29;60.15;;;31.50;;
51732;SDS011;39139;53.144;6.244;2023-02-17T08:18:55;61.67;;;29.15;;
51732;SDS011;39139;53.144;6.244;2023-02-17T08:21:22;71.20;;;32.63;;
51732;SDS011;39139;53.144;6.244;2023-02-17T08:23:48;57.38;;;25.58;;
51732;SDS011;39139;53.144;6.244;2023-02-17T08:26:14;49.38;;;26.63;;
51732;SDS011;39139;53.144;6.244;2023-02-17T08:28:41;54.30;;;30.65;;
51732;SDS011;39139;53.144;6.244;2023-02-17T08:31:18;66.93;;;32.10;;
51732;SDS011;39139;53.144;6.244;2023-02-17T08:33:46;55.92;;;26.83;;
51732;SDS011;39139;53.144;6.244;2023-02-17T08:36:11;47.60;;;23.38;;
51732;SDS011;39139;53.144;6.244;2023-02-17T08:38:38;55.85;;;26.42;;
51732;SDS011;39139;53.144;6.244;2023-02-17T08:41:11;51.28;;;25.40;;
51732;SDS011;39139;53.144;6.244;2023-02-17T08:43:41;45.50;;;23.35;;
51732;SDS011;39139;53.144;6.244;2023-02-17T08:46:08;52.53;;;23.42;;
51732;SDS011;39139;53.144;6.244;2023-02-17T08:48:34;47.95;;;25.10;;
51732;SDS011;39139;53.144;6.244;2023-02-17T08:51:01;49.55;;;21.20;;
51732;SDS011;39139;53.144;6.244;2023-02-17T08:53:27;48.90;;;22.23;;
51732;SDS011;39139;53.144;6.244;2023-02-17T08:55:53;42.88;;;20.35;;
51732;SDS011;39139;53.144;6.244;2023-02-17T08:58:18;37.47;;;18.92;;
51732;SDS011;39139;53.144;6.244;2023-02-17T09:00:44;29.45;;;14.68;;
51732;SDS011;39139;53.144;6.244;2023-02-17T09:03:10;37.40;;;18.35;;
51732;SDS011;39139;53.144;6.244;2023-02-17T09:05:35;36.10;;;16.85;;
51732;SDS011;39139;53.144;6.244;2023-02-17T09:08:01;38.75;;;17.38;;
51732;SDS011;39139;53.144;6.244;2023-02-17T09:10:27;30.67;;;14.73;;
51732;SDS011;39139;53.144;6.244;2023-02-17T09:12:53;34.03;;;14.98;;
51732;SDS011;39139;53.144;6.244;2023-02-17T09:15:19;32.42;;;14.35;;
51732;SDS011;39139;53.144;6.244;2023-02-17T09:17:45;24.52;;;12.75;;
51732;SDS011;39139;53.144;6.244;2023-02-17T09:20:10;29.38;;;14.10;;
51732;SDS011;39139;53.144;6.244;2023-02-17T09:22:36;20.38;;;11.57;;
51732;SDS011;39139;53.144;6.244;2023-02-17T09:25:02;25.05;;;12.20;;
51732;SDS011;39139;53.144;6.244;2023-02-17T09:27:28;25.20;;;12.25;;
51732;SDS011;39139;53.144;6.244;2023-02-17T09:29:54;27.52;;;12.18;;
51732;SDS011;39139;53.144;6.244;2023-02-17T09:32:20;24.42;;;10.77;;
51732;SDS011;39139;53.144;6.244;2023-02-17T09:34:46;23.23;;;11.05;;
51732;SDS011;39139;53.144;6.244;2023-02-17T09:37:15;21.92;;;10.65;;
51732;SDS011;39139;53.144;6.244;2023-02-17T09:39:44;25.98;;;9.48;;
51732;SDS011;39139;53.144;6.244;2023-02-17T09:42:18;21.33;;;10.23;;
51732;SDS011;39139;53.144;6.244;2023-02-17T09:44:51;26.90;;;10.63;;
51732;SDS011;39139;53.144;6.244;2023-02-17T09:47:28;24.38;;;9.43;;
51732;SDS011;39139;53.144;6.244;2023-02-17T09:50:06;13.98;;;8.93;;
51732;SDS011;39139;53.144;6.244;2023-02-17T09:52:40;17.50;;;8.52;;
51732;SDS011;39139;53.144;6.244;2023-02-17T09:55:22;16.52;;;8.73;;
51732;SDS011;39139;53.144;6.244;2023-02-17T10:00:45;22.90;;;8.38;;
51732;SDS011;39139;53.144;6.244;2023-02-17T10:03:15;15.68;;;8.07;;
51732;SDS011;39139;53.144;6.244;2023-02-17T10:08:39;16.63;;;7.88;;
51732;SDS011;39139;53.144;6.244;2023-02-17T10:11:27;18.23;;;8.32;;
51732;SDS011;39139;53.144;6.244;2023-02-17T10:13:58;19.65;;;8.38;;
51732;SDS011;39139;53.144;6.244;2023-02-17T10:22:20;20.60;;;8.43;;
51732;SDS011;39139;53.144;6.244;2023-02-17T10:24:47;18.40;;;7.13;;
51732;SDS011;39139;53.144;6.244;2023-02-17T10:27:35;21.45;;;8.88;;
51732;SDS011;39139;53.144;6.244;2023-02-17T10:33:05;14.95;;;7.90;;
51732;SDS011;39139;53.144;6.244;2023-02-17T10:35:49;23.00;;;8.10;;
51732;SDS011;39139;53.144;6.244;2023-02-17T10:38:17;15.95;;;7.30;;
51732;SDS011;39139;53.144;6.244;2023-02-17T10:40:55;15.43;;;6.85;;
51732;SDS011;39139;53.144;6.244;2023-02-17T10:43:25;16.38;;;7.22;;
51732;SDS011;39139;53.144;6.244;2023-02-17T10:45:56;17.80;;;6.63;;
51732;SDS011;39139;53.144;6.244;2023-02-17T10:48:26;22.88;;;6.93;;
51732;SDS011;39139;53.144;6.244;2023-02-17T10:51:02;17.50;;;6.17;;
51732;SDS011;39139;53.144;6.244;2023-02-17T10:53:47;16.60;;;6.10;;
51732;SDS011;39139;53.144;6.244;2023-02-17T10:56:27;19.90;;;6.65;;
51732;SDS011;39139;53.144;6.244;2023-02-17T11:01:32;14.77;;;5.28;;
51732;SDS011;39139;53.144;6.244;2023-02-17T11:04:03;15.10;;;5.10;;
51732;SDS011;39139;53.144;6.244;2023-02-17T11:06:31;12.85;;;5.32;;
51732;SDS011;39139;53.144;6.244;2023-02-17T11:09:05;24.90;;;5.75;;
51732;SDS011;39139;53.144;6.244;2023-02-17T11:11:46;18.95;;;5.35;;
51732;SDS011;39139;53.144;6.244;2023-02-17T11:14:23;14.00;;;4.25;;
51732;SDS011;39139;53.144;6.244;2023-02-17T11:16:56;15.48;;;4.15;;
51732;SDS011;39139;53.144;6.244;2023-02-17T11:19:36;17.35;;;4.70;;
51732;SDS011;39139;53.144;6.244;2023-02-17T11:22:03;8.23;;;3.35;;
51732;SDS011;39139;53.144;6.244;2023-02-17T11:24:31;19.80;;;4.00;;
51732;SDS011;39139;53.144;6.244;2023-02-17T11:29:29;15.23;;;4.07;;
51732;SDS011;39139;53.144;6.244;2023-02-17T11:34:29;10.70;;;3.35;;
51732;SDS011;39139;53.144;6.244;2023-02-17T11:39:39;13.82;;;4.55;;
51732;SDS011;39139;53.144;6.244;2023-02-17T11:42:15;15.48;;;3.42;;
51732;SDS011;39139;53.144;6.244;2023-02-17T11:44:45;11.85;;;3.22;;
51732;SDS011;39139;53.144;6.244;2023-02-17T11:47:21;9.90;;;3.38;;
51732;SDS011;39139;53.144;6.244;2023-02-17T11:55:21;14.43;;;3.58;;
51732;SDS011;39139;53.144;6.244;2023-02-17T11:58:40;17.27;;;3.42;;
51732;SDS011;39139;53.144;6.244;2023-02-17T12:09:14;9.30;;;3.30;;
51732;SDS011;39139;53.144;6.244;2023-02-17T12:17:55;15.50;;;3.78;;
51732;SDS011;39139;53.144;6.244;2023-02-17T12:26:36;13.48;;;2.47;;
51732;SDS011;39139;53.144;6.244;2023-02-17T12:34:58;12.55;;;2.30;;
51732;SDS011;39139;53.144;6.244;2023-02-17T12:37:41;11.13;;;2.33;;
51732;SDS011;39139;53.144;6.244;2023-02-17T12:42:51;10.32;;;1.88;;
51732;SDS011;39139;53.144;6.244;2023-02-17T12:45:37;7.70;;;2.22;;
51732;SDS011;39139;53.144;6.244;2023-02-17T12:51:08;7.63;;;2.17;;
51732;SDS011;39139;53.144;6.244;2023-02-17T13:02:05;7.50;;;2.40;;
51732;SDS011;39139;53.144;6.244;2023-02-17T13:04:51;10.32;;;2.28;;
51732;SDS011;39139;53.144;6.244;2023-02-17T13:09:50;9.05;;;2.25;;
51732;SDS011;39139;53.144;6.244;2023-02-17T13:17:25;7.68;;;2.70;;
51732;SDS011;39139;53.144;6.244;2023-02-17T13:22:34;12.80;;;2.53;;
51732;SDS011;39139;53.144;6.244;2023-02-17T13:25:04;7.63;;;2.70;;
51732;SDS011;39139;53.144;6.244;2023-02-17T13:27:34;13.55;;;2.83;;
51732;SDS011;39139;53.144;6.244;2023-02-17T13:32:34;11.90;;;2.15;;
51732;SDS011;39139;53.144;6.244;2023-02-17T13:35:06;13.65;;;2.70;;
51732;SDS011;39139;53.144;6.244;2023-02-17T13:37:42;10.68;;;2.60;;
51732;SDS011;39139;53.144;6.244;2023-02-17T13:42:42;13.50;;;3.15;;
51732;SDS011;39139;53.144;6.244;2023-02-17T13:47:54;16.88;;;2.58;;
51732;SDS011;39139;53.144;6.244;2023-02-17T13:50:32;16.95;;;4.00;;
51732;SDS011;39139;53.144;6.244;2023-02-17T13:53:01;18.65;;;3.03;;
51732;SDS011;39139;53.144;6.244;2023-02-17T13:55:30;13.13;;;2.65;;
51732;SDS011;39139;53.144;6.244;2023-02-17T13:57:57;17.15;;;2.58;;
51732;SDS011;39139;53.144;6.244;2023-02-17T14:00:24;12.63;;;2.92;;
51732;SDS011;39139;53.144;6.244;2023-02-17T14:02:53;10.20;;;2.80;;
51732;SDS011;39139;53.144;6.244;2023-02-17T14:08:16;13.50;;;2.63;;
51732;SDS011;39139;53.144;6.244;2023-02-17T14:10:45;21.48;;;3.45;;
51732;SDS011;39139;53.144;6.244;2023-02-17T14:13:12;12.60;;;3.10;;
51732;SDS011;39139;53.144;6.244;2023-02-17T14:15:52;13.65;;;2.80;;
51732;SDS011;39139;53.144;6.244;2023-02-17T14:18:28;10.43;;;2.58;;
51732;SDS011;39139;53.144;6.244;2023-02-17T14:21:09;14.85;;;3.13;;
51732;SDS011;39139;53.144;6.244;2023-02-17T14:23:46;12.60;;;2.78;;
51732;SDS011;39139;53.144;6.244;2023-02-17T14:29:08;16.30;;;3.63;;
51732;SDS011;39139;53.144;6.244;2023-02-17T14:31:41;11.82;;;3.15;;
51732;SDS011;39139;53.144;6.244;2023-02-17T14:34:10;22.25;;;3.55;;
51732;SDS011;39139;53.144;6.244;2023-02-17T14:36:47;10.15;;;2.83;;
51732;SDS011;39139;53.144;6.244;2023-02-17T14:39:14;21.25;;;3.90;;
51732;SDS011;39139;53.144;6.244;2023-02-17T14:41:40;12.98;;;3.30;;
51732;SDS011;39139;53.144;6.244;2023-02-17T14:44:06;18.77;;;3.30;;
51732;SDS011;39139;53.144;6.244;2023-02-17T14:46:32;10.50;;;3.00;;
51732;SDS011;39139;53.144;6.244;2023-02-17T14:48:58;18.98;;;3.35;;
51732;SDS011;39139;53.144;6.244;2023-02-17T14:51:25;11.88;;;2.70;;
51732;SDS011;39139;53.144;6.244;2023-02-17T14:53:56;18.35;;;3.53;;
51732;SDS011;39139;53.144;6.244;2023-02-17T14:56:24;10.88;;;2.53;;
51732;SDS011;39139;53.144;6.244;2023-02-17T14:58:53;14.65;;;3.28;;
51732;SDS011;39139;53.144;6.244;2023-02-17T15:01:20;12.50;;;2.15;;
51732;SDS011;39139;53.144;6.244;2023-02-17T15:03:47;14.30;;;2.80;;
51732;SDS011;39139;53.144;6.244;2023-02-17T15:06:17;16.50;;;2.80;;
51732;SDS011;39139;53.144;6.244;2023-02-17T15:08:48;13.18;;;2.70;;
51732;SDS011;39139;53.144;6.244;2023-02-17T15:11:35;12.85;;;2.72;;
51732;SDS011;39139;53.144;6.244;2023-02-17T15:14:02;10.30;;;2.85;;
51732;SDS011;39139;53.144;6.244;2023-02-17T15:16:28;10.75;;;1.85;;
51732;SDS011;39139;53.144;6.244;2023-02-17T15:18:54;13.30;;;3.50;;
51732;SDS011;39139;53.144;6.244;2023-02-17T15:21:27;15.05;;;2.55;;
51732;SDS011;39139;53.144;6.244;2023-02-17T15:23:58;16.27;;;2.55;;
51732;SDS011;39139;53.144;6.244;2023-02-17T15:26:26;9.15;;;2.13;;
51732;SDS011;39139;53.144;6.244;2023-02-17T15:28:54;15.45;;;2.58;;
51732;SDS011;39139;53.144;6.244;2023-02-17T15:31:21;16.40;;;2.63;;
51732;SDS011;39139;53.144;6.244;2023-02-17T15:33:57;13.73;;;2.92;;
51732;SDS011;39139;53.144;6.244;2023-02-17T15:36:25;12.32;;;2.05;;
51732;SDS011;39139;53.144;6.244;2023-02-17T15:38:52;11.43;;;2.47;;
51732;SDS011;39139;53.144;6.244;2023-02-17T15:41:20;6.03;;;1.48;;
51732;SDS011;39139;53.144;6.244;2023-02-17T15:43:51;11.55;;;1.75;;
51732;SDS011;39139;53.144;6.244;2023-02-17T15:46:20;14.07;;;2.50;;
51732;SDS011;39139;53.144;6.244;2023-02-17T15:48:50;9.60;;;2.03;;
51732;SDS011;39139;53.144;6.244;2023-02-17T15:51:17;15.07;;;3.03;;
51732;SDS011;39139;53.144;6.244;2023-02-17T15:53:46;20.00;;;2.70;;
51732;SDS011;39139;53.144;6.244;2023-02-17T15:56:20;11.95;;;2.60;;
51732;SDS011;39139;53.144;6.244;2023-02-17T15:58:48;18.48;;;2.85;;
51732;SDS011;39139;53.144;6.244;2023-02-17T16:01:28;15.65;;;2.60;;
51732;SDS011;39139;53.144;6.244;2023-02-17T16:03:58;13.70;;;2.17;;
51732;SDS011;39139;53.144;6.244;2023-02-17T16:06:24;15.52;;;2.33;;
51732;SDS011;39139;53.144;6.244;2023-02-17T16:08:50;14.82;;;2.38;;
51732;SDS011;39139;53.144;6.244;2023-02-17T16:11:17;15.23;;;3.47;;
51732;SDS011;39139;53.144;6.244;2023-02-17T16:13:45;12.05;;;2.30;;
51732;SDS011;39139;53.144;6.244;2023-02-17T16:16:16;18.48;;;2.00;;
51732;SDS011;39139;53.144;6.244;2023-02-17T16:18:43;14.68;;;2.10;;
51732;SDS011;39139;53.144;6.244;2023-02-17T16:21:12;14.20;;;2.80;;
51732;SDS011;39139;53.144;6.244;2023-02-17T16:23:39;10.48;;;2.00;;
51732;SDS011;39139;53.144;6.244;2023-02-17T16:26:18;8.98;;;2.45;;
51732;SDS011;39139;53.144;6.244;2023-02-17T16:28:50;9.35;;;2.08;;
51732;SDS011;39139;53.144;6.244;2023-02-17T16:31:15;17.98;;;3.58;;
51732;SDS011;39139;53.144;6.244;2023-02-17T16:33:41;12.85;;;2.88;;
51732;SDS011;39139;53.144;6.244;2023-02-17T16:36:14;13.65;;;2.30;;
51732;SDS011;39139;53.144;6.244;2023-02-17T16:38:47;13.82;;;2.40;;